Milltown, South Dakota
Current Conditions -  °F | °C
As of 3:53 AM on Saturday 25 Oct 2014 (Local Time) from KMHE Reporting Station
Clear Clear  
Wind Chill: 47°   Ceiling: Unl
Heat Index: 49°   Visibility: 7mi
Dew Point: 40°   Wind: 6mph
Humidity: 71%   Direction: 290°WNW
Pressure: 30.09"   Gusts: NA
Location:  43.4018°N, 97.9102°W
Report Text: KMHE 250853Z AUTO 29005KT 7SM CLR 09/04 A3009 RMK AO2 SLP188 T00940044 51015 $
Loading
Personal Weather Stations






























Interactive Weather Map
Tropical Storm Tracking
New forecast layout! Learn more

10-Day Weather Forecast

Advertisements
Track Severe Weather on mobile